createdAt,value
2023-05-18T00:00:50.036Z,12.07
2023-05-18T00:03:16.701Z,12.10
2023-05-18T00:05:46.041Z,11.55
2023-05-18T00:08:18.379Z,12.00
2023-05-18T00:10:44.972Z,12.10
2023-05-18T00:13:11.606Z,12.75
2023-05-18T00:15:38.332Z,11.55
2023-05-18T00:18:05.027Z,11.98
2023-05-18T00:20:38.134Z,12.48
2023-05-18T00:23:05.531Z,11.45
2023-05-18T00:25:36.576Z,13.07
2023-05-18T00:28:03.785Z,11.33
2023-05-18T00:30:30.350Z,12.80
2023-05-18T00:33:00.423Z,11.45
2023-05-18T00:35:34.340Z,11.73
2023-05-18T00:38:01.923Z,11.48
2023-05-18T00:40:29.839Z,12.90
2023-05-18T00:42:56.476Z,12.40
2023-05-18T00:45:23.097Z,10.60
2023-05-18T00:47:50.086Z,11.88
2023-05-18T00:50:16.708Z,12.63
2023-05-18T00:52:52.671Z,11.50
2023-05-18T00:55:23.286Z,11.63
2023-05-18T00:57:54.631Z,11.75
2023-05-18T01:00:22.404Z,11.50
2023-05-18T01:02:56.229Z,11.85
2023-05-18T01:05:34.278Z,11.43
2023-05-18T01:08:02.091Z,10.40
2023-05-18T01:10:33.437Z,10.75
2023-05-18T01:13:02.927Z,12.07
2023-05-18T01:15:34.208Z,10.60
2023-05-18T01:18:16.163Z,10.90
2023-05-18T01:20:46.142Z,12.43
2023-05-18T01:23:30.286Z,12.48
2023-05-18T01:25:56.934Z,11.82
2023-05-18T01:28:25.991Z,10.35
2023-05-18T01:30:53.028Z,10.02
2023-05-18T01:33:19.816Z,9.32
2023-05-18T01:35:46.445Z,8.32
2023-05-18T01:38:13.122Z,7.20
2023-05-18T01:40:48.365Z,6.85
2023-05-18T01:43:23.731Z,6.95
2023-05-18T01:45:55.136Z,6.07
2023-05-18T01:48:24.383Z,5.13
2023-05-18T01:50:58.335Z,4.97
2023-05-18T01:53:38.221Z,5.15
2023-05-18T01:56:17.377Z,5.10
2023-05-18T01:58:45.616Z,4.75
2023-05-18T02:01:12.198Z,5.43
2023-05-18T02:03:38.841Z,5.47
2023-05-18T02:06:05.657Z,5.13
2023-05-18T02:08:32.224Z,5.47
2023-05-18T02:10:58.802Z,5.50
2023-05-18T02:13:25.335Z,5.50
2023-05-18T02:15:51.950Z,5.53
2023-05-18T02:18:18.562Z,5.57
2023-05-18T02:20:45.160Z,5.40
2023-05-18T02:23:11.758Z,5.75
2023-05-18T02:25:38.316Z,6.05
2023-05-18T02:28:04.971Z,6.50
2023-05-18T02:30:31.550Z,5.70
2023-05-18T02:32:59.760Z,6.05
2023-05-18T02:35:27.517Z,5.40
2023-05-18T02:37:57.083Z,4.93
2023-05-18T02:40:23.724Z,5.55
2023-05-18T02:42:50.326Z,7.45
2023-05-18T02:45:17.561Z,6.32
2023-05-18T02:47:44.366Z,6.90
2023-05-18T02:50:11.147Z,6.50
2023-05-18T02:52:45.952Z,6.60
2023-05-18T02:55:16.974Z,6.95
2023-05-18T02:57:44.471Z,7.50
2023-05-18T03:00:11.428Z,6.80
2023-05-18T03:02:38.158Z,6.75
2023-05-18T03:05:05.414Z,6.47
2023-05-18T03:07:32.023Z,6.90
2023-05-18T03:09:58.893Z,7.30
2023-05-18T03:12:25.449Z,7.35
2023-05-18T03:14:52.002Z,7.15
2023-05-18T03:17:18.544Z,6.47
2023-05-18T03:19:45.140Z,6.22
2023-05-18T03:22:11.691Z,6.05
2023-05-18T03:24:41.774Z,6.28
2023-05-18T03:27:08.373Z,6.63
2023-05-18T03:29:34.952Z,6.03
2023-05-18T03:32:01.485Z,5.63
2023-05-18T03:34:28.096Z,4.97
2023-05-18T03:36:55.042Z,5.55
2023-05-18T03:39:21.654Z,5.10
2023-05-18T03:41:48.253Z,4.90
2023-05-18T03:44:14.903Z,5.47
2023-05-18T03:46:47.279Z,4.97
2023-05-18T03:49:14.020Z,4.85
2023-05-18T03:51:40.881Z,5.18
2023-05-18T03:54:07.634Z,5.28
2023-05-18T03:56:34.289Z,5.22
2023-05-18T03:59:00.865Z,5.10
2023-05-18T04:01:31.423Z,4.85
2023-05-18T04:03:58.252Z,5.03
2023-05-18T04:06:33.677Z,4.00
2023-05-18T04:09:00.394Z,3.85
2023-05-18T04:11:26.999Z,4.53
2023-05-18T04:13:53.635Z,3.95
2023-05-18T04:16:20.220Z,4.72
2023-05-18T04:18:46.934Z,4.30
2023-05-18T04:21:13.537Z,4.03
2023-05-18T04:23:40.121Z,4.60
2023-05-18T04:26:06.790Z,4.38
2023-05-18T04:28:33.558Z,4.50
2023-05-18T04:31:00.158Z,4.25
2023-05-18T04:33:26.750Z,4.55
2023-05-18T04:35:53.393Z,4.90
2023-05-18T04:38:20.050Z,4.35
2023-05-18T04:40:46.573Z,5.15
2023-05-18T04:43:13.286Z,4.50
2023-05-18T04:45:39.913Z,4.25
2023-05-18T04:48:06.552Z,5.22
2023-05-18T04:50:33.202Z,5.07
2023-05-18T04:52:59.791Z,5.03
2023-05-18T04:55:26.646Z,4.82
2023-05-18T04:57:54.075Z,4.50
2023-05-18T05:00:20.880Z,4.57
2023-05-18T05:02:47.749Z,4.07
2023-05-18T05:05:17.250Z,4.00
2023-05-18T05:07:50.267Z,4.35
2023-05-18T05:10:16.825Z,3.58
2023-05-18T05:12:43.416Z,4.32
2023-05-18T05:15:11.891Z,3.80
2023-05-18T05:17:38.570Z,3.65
2023-05-18T05:20:09.170Z,3.33
2023-05-18T05:22:37.044Z,2.88
2023-05-18T05:25:10.826Z,3.33
2023-05-18T05:27:37.522Z,2.70
2023-05-18T05:30:04.642Z,3.28
2023-05-18T05:32:34.268Z,2.65
2023-05-18T05:35:01.471Z,2.58
2023-05-18T05:37:28.436Z,2.58
2023-05-18T05:39:55.033Z,3.00
2023-05-18T05:42:21.588Z,2.45
2023-05-18T05:44:50.922Z,2.70
2023-05-18T05:47:17.514Z,3.25
2023-05-18T05:49:44.134Z,2.38
2023-05-18T05:52:10.754Z,2.67
2023-05-18T05:54:38.466Z,3.08
2023-05-18T05:57:05.130Z,2.78
2023-05-18T05:59:36.830Z,3.75
2023-05-18T06:02:03.461Z,2.83
2023-05-18T06:04:33.758Z,2.60
2023-05-18T06:07:00.356Z,2.38
2023-05-18T06:09:26.962Z,2.53
2023-05-18T06:11:53.731Z,2.47
2023-05-18T06:14:20.312Z,2.60
2023-05-18T06:16:49.736Z,2.60
2023-05-18T06:19:18.677Z,2.40
2023-05-18T06:21:45.320Z,2.95
2023-05-18T06:24:12.092Z,2.80
2023-05-18T06:26:38.679Z,2.33
2023-05-18T06:29:06.958Z,3.08
2023-05-18T06:31:33.586Z,2.47
2023-05-18T06:34:00.233Z,2.40
2023-05-18T06:36:26.900Z,2.45
2023-05-18T06:38:53.661Z,2.25
2023-05-18T06:41:21.421Z,2.50
2023-05-18T06:43:48.043Z,2.75
2023-05-18T06:46:26.778Z,2.50
2023-05-18T06:48:53.688Z,2.78
2023-05-18T06:51:20.389Z,2.50
2023-05-18T06:53:47.152Z,2.58
2023-05-18T06:56:13.787Z,3.00
2023-05-18T06:58:41.636Z,3.58
2023-05-18T07:01:08.345Z,3.60
2023-05-18T07:03:36.276Z,3.75
2023-05-18T07:06:09.626Z,4.05
2023-05-18T07:08:36.193Z,3.85
2023-05-18T07:11:03.319Z,3.42
2023-05-18T07:13:30.059Z,3.15
2023-05-18T07:15:56.945Z,2.90
2023-05-18T07:18:23.619Z,2.80
2023-05-18T07:20:50.297Z,2.63
2023-05-18T07:23:16.900Z,2.92
2023-05-18T07:25:43.471Z,2.67
2023-05-18T07:28:10.121Z,3.08
2023-05-18T07:30:36.734Z,2.40
2023-05-18T07:33:03.378Z,2.38
2023-05-18T07:35:37.034Z,2.83
2023-05-18T07:38:09.522Z,2.35
2023-05-18T07:40:37.177Z,1.98
2023-05-18T07:43:14.027Z,2.45
2023-05-18T07:45:41.344Z,2.28
2023-05-18T07:48:11.610Z,2.13
2023-05-18T07:50:38.183Z,1.88
2023-05-18T07:53:04.748Z,1.95
2023-05-18T07:55:31.497Z,1.88
2023-05-18T07:57:58.283Z,2.00
2023-05-18T08:00:26.200Z,1.90
2023-05-18T08:02:53.068Z,1.95
2023-05-18T08:05:20.061Z,1.83
2023-05-18T08:07:46.650Z,2.13
2023-05-18T08:10:16.702Z,1.48
2023-05-18T08:12:43.340Z,2.63
2023-05-18T08:15:10.279Z,2.05
2023-05-18T08:17:37.139Z,1.77
2023-05-18T08:20:03.863Z,2.03
2023-05-18T08:22:30.729Z,1.90
2023-05-18T08:24:57.505Z,1.67
2023-05-18T08:27:24.115Z,2.05
2023-05-18T08:29:50.833Z,1.77
2023-05-18T08:32:18.678Z,1.70
2023-05-18T08:34:45.820Z,2.08
2023-05-18T08:37:12.589Z,1.88
2023-05-18T08:39:39.168Z,2.08
2023-05-18T08:42:14.310Z,1.73
2023-05-18T08:45:07.233Z,1.65
2023-05-18T08:50:24.619Z,1.70
2023-05-18T08:52:56.619Z,1.88
2023-05-18T09:00:56.977Z,1.75
2023-05-18T09:03:24.577Z,1.85
2023-05-18T09:05:52.259Z,1.30
2023-05-18T09:08:19.192Z,1.50
2023-05-18T09:10:46.447Z,1.70
2023-05-18T09:13:13.882Z,1.70
2023-05-18T09:15:43.263Z,1.35
2023-05-18T09:18:10.903Z,1.63
2023-05-18T09:20:37.588Z,1.58
2023-05-18T09:23:05.141Z,1.40
2023-05-18T09:25:35.497Z,1.50
2023-05-18T09:28:03.012Z,1.83
2023-05-18T09:30:29.673Z,6.07
2023-05-18T09:32:56.734Z,1.73
2023-05-18T09:35:27.436Z,1.80
2023-05-18T09:37:54.400Z,1.50
2023-05-18T09:40:33.255Z,2.03
2023-05-18T09:43:06.746Z,2.17
2023-05-18T09:45:35.457Z,1.80
2023-05-18T09:48:02.183Z,2.03
2023-05-18T09:50:29.615Z,1.70
2023-05-18T09:52:56.790Z,1.63
2023-05-18T09:55:27.325Z,2.03
2023-05-18T09:57:54.062Z,1.67
2023-05-18T10:00:24.218Z,1.65
2023-05-18T10:02:56.037Z,1.77
2023-05-18T10:05:27.209Z,1.43
2023-05-18T10:07:54.840Z,1.90
2023-05-18T10:10:22.945Z,2.10
2023-05-18T10:12:55.984Z,1.92
2023-05-18T10:15:30.813Z,2.05
2023-05-18T10:17:59.714Z,1.67
2023-05-18T10:20:26.427Z,1.70
2023-05-18T10:22:54.854Z,2.03
2023-05-18T10:25:22.706Z,1.55
2023-05-18T10:27:52.920Z,1.63
2023-05-18T10:30:19.871Z,1.77
2023-05-18T10:32:46.630Z,2.03
2023-05-18T10:35:22.368Z,2.05
2023-05-18T10:37:51.877Z,1.50
2023-05-18T10:40:31.870Z,1.92
2023-05-18T10:42:59.617Z,2.28
2023-05-18T10:45:26.983Z,2.08
2023-05-18T10:47:53.916Z,1.83
2023-05-18T10:50:22.577Z,1.65
2023-05-18T10:52:52.480Z,2.13
2023-05-18T10:55:19.280Z,4.13
2023-05-18T10:57:47.903Z,1.40
2023-05-18T11:00:14.645Z,1.63
2023-05-18T11:02:46.275Z,1.58
2023-05-18T11:05:13.203Z,2.10
2023-05-18T11:07:45.108Z,2.03
2023-05-18T11:10:11.730Z,1.77
2023-05-18T11:12:38.886Z,1.67
2023-05-18T11:15:05.797Z,1.67
2023-05-18T11:17:32.400Z,1.67
2023-05-18T11:20:17.728Z,2.28
2023-05-18T11:22:54.150Z,2.35
2023-05-18T11:25:26.721Z,2.47
2023-05-18T11:27:53.981Z,1.80
2023-05-18T11:30:30.258Z,2.05
2023-05-18T11:33:16.798Z,1.98
2023-05-18T11:36:06.051Z,1.55
2023-05-18T11:38:51.252Z,2.10
2023-05-18T11:41:33.053Z,2.10
2023-05-18T11:44:05.668Z,2.05
2023-05-18T11:46:32.821Z,1.85
2023-05-18T11:49:03.480Z,1.80
2023-05-18T11:51:33.702Z,1.73
2023-05-18T11:54:01.400Z,1.90
2023-05-18T11:56:31.222Z,1.95
2023-05-18T11:59:20.017Z,1.65
2023-05-18T12:01:57.730Z,1.50
2023-05-18T12:04:32.644Z,1.60
2023-05-18T12:07:00.595Z,1.73
2023-05-18T12:09:30.689Z,1.70
2023-05-18T12:11:57.401Z,1.80
2023-05-18T12:14:24.322Z,1.77
2023-05-18T12:16:51.028Z,1.58
2023-05-18T12:19:25.847Z,1.73
2023-05-18T12:21:53.630Z,1.75
2023-05-18T12:24:20.924Z,1.75
2023-05-18T12:26:49.378Z,1.80
2023-05-18T12:29:16.087Z,1.65
2023-05-18T12:31:46.305Z,1.52
2023-05-18T12:34:12.990Z,1.60
2023-05-18T12:36:51.997Z,1.70
2023-05-18T12:39:18.557Z,1.92
2023-05-18T12:41:45.184Z,1.63
2023-05-18T12:44:11.821Z,1.50
2023-05-18T12:46:41.352Z,1.50
2023-05-18T12:49:09.264Z,1.70
2023-05-18T12:51:36.968Z,2.22
2023-05-18T12:54:04.533Z,1.50
2023-05-18T12:56:49.995Z,2.05
2023-05-18T12:59:20.253Z,3.63
2023-05-18T13:01:47.312Z,1.95
2023-05-18T13:04:21.143Z,1.90
2023-05-18T13:06:50.646Z,1.58
2023-05-18T13:09:25.337Z,1.85
2023-05-18T13:12:03.932Z,1.80
2023-05-18T13:14:37.547Z,2.03
2023-05-18T13:17:07.336Z,1.90
2023-05-18T13:19:37.767Z,1.80
2023-05-18T13:22:04.486Z,1.75
2023-05-18T13:24:33.397Z,1.73
2023-05-18T13:27:00.908Z,1.90
2023-05-18T13:29:27.665Z,1.70
2023-05-18T13:31:56.554Z,2.00
2023-05-18T13:34:26.704Z,1.90
2023-05-18T13:36:55.628Z,1.77
2023-05-18T13:39:25.478Z,1.40
2023-05-18T13:41:52.100Z,1.80
2023-05-18T13:44:18.745Z,2.20
2023-05-18T13:46:45.483Z,1.33
2023-05-18T13:49:12.093Z,1.63
2023-05-18T13:51:38.634Z,1.55
2023-05-18T13:54:13.096Z,1.55
2023-05-18T13:56:40.244Z,1.50
2023-05-18T13:59:06.960Z,1.52
2023-05-18T14:01:33.625Z,1.90
2023-05-18T14:04:00.193Z,1.90
2023-05-18T14:06:26.826Z,1.88
2023-05-18T14:08:54.110Z,1.50
2023-05-18T14:11:21.838Z,1.85
2023-05-18T14:13:50.675Z,1.98
2023-05-18T14:16:21.024Z,1.75
2023-05-18T14:18:47.948Z,1.55
2023-05-18T14:21:18.735Z,1.73
2023-05-18T14:23:52.548Z,1.77
2023-05-18T14:26:23.901Z,1.90
2023-05-18T14:28:53.648Z,1.90
2023-05-18T14:31:23.552Z,1.98
2023-05-18T14:33:50.210Z,1.60
2023-05-18T14:36:16.984Z,1.85
2023-05-18T14:38:43.795Z,1.83
2023-05-18T14:41:13.189Z,2.25
2023-05-18T14:43:39.949Z,2.30
2023-05-18T14:46:09.139Z,2.33
2023-05-18T14:48:36.350Z,2.20
2023-05-18T14:51:03.280Z,2.22
2023-05-18T14:53:29.879Z,2.20
2023-05-18T14:56:00.107Z,2.20
2023-05-18T14:58:34.810Z,2.55
2023-05-18T15:01:09.587Z,2.17
2023-05-18T15:03:40.124Z,2.53
2023-05-18T15:06:10.958Z,2.10
2023-05-18T15:08:40.730Z,2.03
2023-05-18T15:11:13.988Z,2.40
2023-05-18T15:13:40.942Z,2.30
2023-05-18T15:16:07.813Z,2.80
2023-05-18T15:18:34.457Z,2.40
2023-05-18T15:21:03.455Z,2.30
2023-05-18T15:23:33.002Z,2.60
2023-05-18T15:25:59.972Z,2.75
2023-05-18T15:28:26.720Z,2.38
2023-05-18T15:30:55.827Z,2.40
2023-05-18T15:33:22.416Z,2.72
2023-05-18T15:35:51.467Z,3.50
2023-05-18T15:38:24.464Z,2.60
2023-05-18T15:40:55.186Z,2.92
2023-05-18T15:43:22.942Z,2.70
2023-05-18T15:45:51.812Z,2.88
2023-05-18T15:48:18.518Z,2.50
2023-05-18T15:50:45.519Z,2.70
2023-05-18T15:53:12.958Z,2.50
2023-05-18T15:55:39.616Z,2.75
2023-05-18T15:58:06.287Z,2.40
2023-05-18T16:00:33.141Z,2.38
2023-05-18T16:02:59.975Z,2.67
2023-05-18T16:05:26.778Z,2.47
2023-05-18T16:07:53.541Z,2.40
2023-05-18T16:10:20.216Z,2.55
2023-05-18T16:12:49.569Z,2.90
2023-05-18T16:15:17.929Z,2.42
2023-05-18T16:17:45.352Z,2.50
2023-05-18T16:20:12.375Z,2.55
2023-05-18T16:22:38.970Z,2.55
2023-05-18T16:25:08.373Z,2.60
2023-05-18T16:27:34.973Z,2.60
2023-05-18T16:30:01.558Z,2.53
2023-05-18T16:32:28.175Z,2.67
2023-05-18T16:34:55.584Z,2.40
2023-05-18T16:37:25.830Z,2.60
2023-05-18T16:40:00.397Z,2.47
2023-05-18T16:42:27.241Z,2.65
2023-05-18T16:44:53.823Z,2.88
2023-05-18T16:47:20.573Z,2.97
2023-05-18T16:49:48.188Z,2.88
2023-05-18T16:52:14.753Z,2.60
2023-05-18T16:54:46.528Z,2.83
2023-05-18T16:57:13.162Z,3.00
2023-05-18T16:59:39.913Z,2.90
2023-05-18T17:02:08.907Z,3.30
2023-05-18T17:04:38.237Z,3.42
2023-05-18T17:07:05.350Z,2.80
2023-05-18T17:09:31.896Z,2.88
2023-05-18T17:12:01.172Z,2.85
2023-05-18T17:14:27.810Z,2.75
2023-05-18T17:16:55.956Z,2.75
2023-05-18T17:19:22.635Z,2.90
2023-05-18T17:21:49.312Z,3.00
2023-05-18T17:24:16.250Z,2.67
2023-05-18T17:26:42.880Z,2.50
2023-05-18T17:29:09.523Z,2.47
2023-05-18T17:31:36.220Z,2.67
2023-05-18T17:34:02.824Z,2.70
2023-05-18T17:36:29.372Z,2.83
2023-05-18T17:38:55.972Z,2.72
2023-05-18T17:41:22.665Z,2.50
2023-05-18T17:43:49.296Z,2.65
2023-05-18T17:46:19.873Z,2.53
2023-05-18T17:48:50.722Z,3.03
2023-05-18T17:51:17.306Z,2.80
2023-05-18T17:53:50.564Z,2.60
2023-05-18T17:56:17.228Z,2.90
2023-05-18T17:58:43.838Z,2.45
2023-05-18T18:01:10.559Z,2.55
2023-05-18T18:03:37.344Z,2.58
2023-05-18T18:06:04.200Z,2.47
2023-05-18T18:08:30.885Z,3.00
2023-05-18T18:11:02.371Z,3.10
2023-05-18T18:13:29.562Z,3.42
2023-05-18T18:15:56.130Z,2.80
2023-05-18T18:18:24.227Z,2.72
2023-05-18T18:20:54.976Z,3.33
2023-05-18T18:23:21.580Z,2.70
2023-05-18T18:25:48.455Z,3.08
2023-05-18T18:28:15.301Z,2.90
2023-05-18T18:30:42.691Z,3.35
2023-05-18T18:33:09.312Z,3.22
2023-05-18T18:35:47.870Z,3.17
2023-05-18T18:38:15.157Z,3.25
2023-05-18T18:40:41.797Z,2.45
2023-05-18T18:43:08.410Z,3.10
2023-05-18T18:45:34.995Z,3.10
2023-05-18T18:48:01.889Z,3.50
2023-05-18T18:50:29.212Z,3.55
2023-05-18T18:52:56.076Z,2.95
2023-05-18T18:55:24.574Z,3.22
2023-05-18T18:58:02.269Z,3.22
2023-05-18T19:00:30.591Z,3.35
2023-05-18T19:02:57.347Z,3.28
2023-05-18T19:05:33.539Z,3.60
2023-05-18T19:08:10.995Z,3.70
2023-05-18T19:10:38.827Z,3.20
2023-05-18T19:13:09.643Z,3.13
2023-05-18T19:15:36.497Z,3.78
2023-05-18T19:18:03.296Z,3.80
2023-05-18T19:20:30.141Z,4.13
2023-05-18T19:22:58.183Z,3.67
2023-05-18T19:25:28.034Z,3.92
2023-05-18T19:27:55.293Z,3.60
2023-05-18T19:30:24.744Z,3.70
2023-05-18T19:32:52.418Z,3.95
2023-05-18T19:35:21.919Z,3.22
2023-05-18T19:37:49.670Z,3.78
2023-05-18T19:40:16.513Z,3.58
2023-05-18T19:42:47.430Z,3.83
2023-05-18T19:45:14.038Z,3.80
2023-05-18T19:47:40.722Z,3.75
2023-05-18T19:50:07.659Z,5.10
2023-05-18T19:52:34.281Z,5.00
2023-05-18T19:55:00.839Z,4.90
2023-05-18T19:57:27.773Z,4.40
2023-05-18T20:00:05.025Z,4.03
2023-05-18T20:02:34.406Z,4.13
2023-05-18T20:05:06.206Z,4.30
2023-05-18T20:07:35.946Z,3.90
2023-05-18T20:10:02.577Z,4.18
2023-05-18T20:12:29.252Z,4.75
2023-05-18T20:14:56.391Z,4.97
2023-05-18T20:17:25.901Z,4.45
2023-05-18T20:19:56.037Z,4.25
2023-05-18T20:22:31.701Z,4.18
2023-05-18T20:24:58.989Z,3.70
2023-05-18T20:27:26.810Z,3.78
2023-05-18T20:29:55.793Z,4.22
2023-05-18T20:32:25.356Z,4.03
2023-05-18T20:34:51.989Z,4.40
2023-05-18T20:37:18.598Z,4.20
2023-05-18T20:39:47.977Z,3.50
2023-05-18T20:42:22.984Z,3.90
2023-05-18T20:44:53.029Z,3.75
2023-05-18T20:47:19.752Z,4.43
2023-05-18T20:49:49.982Z,3.60
2023-05-18T20:52:16.702Z,3.47
2023-05-18T20:54:46.554Z,3.92
2023-05-18T20:57:16.925Z,3.55
2023-05-18T20:59:43.554Z,4.10
2023-05-18T21:02:10.227Z,3.78
2023-05-18T21:04:37.958Z,3.47
2023-05-18T21:07:07.302Z,4.05
2023-05-18T21:09:34.161Z,3.55
2023-05-18T21:12:00.850Z,4.05
2023-05-18T21:14:27.483Z,3.72
2023-05-18T21:16:54.017Z,3.55
2023-05-18T21:19:22.669Z,3.30
2023-05-18T21:21:49.355Z,3.67
2023-05-18T21:24:16.075Z,2.92
2023-05-18T21:26:42.673Z,3.25
2023-05-18T21:29:12.014Z,3.20
2023-05-18T21:31:41.658Z,2.97
2023-05-18T21:34:08.350Z,3.33
2023-05-18T21:36:38.260Z,3.60
2023-05-18T21:39:05.344Z,3.47
2023-05-18T21:41:35.003Z,3.53
2023-05-18T21:44:02.827Z,3.40
2023-05-18T21:46:32.854Z,3.65
2023-05-18T21:49:02.917Z,3.13
2023-05-18T21:51:30.433Z,3.63
2023-05-18T21:53:57.421Z,3.47
2023-05-18T21:56:24.068Z,3.33
2023-05-18T21:58:53.243Z,3.70
2023-05-18T22:01:20.134Z,3.70
2023-05-18T22:03:50.340Z,3.67
2023-05-18T22:06:17.386Z,3.47
2023-05-18T22:08:46.225Z,3.28
2023-05-18T22:11:13.627Z,3.88
2023-05-18T22:13:45.446Z,3.72
2023-05-18T22:18:38.723Z,3.70
2023-05-18T22:21:08.251Z,3.95
2023-05-18T22:23:34.801Z,3.63
2023-05-18T22:26:01.488Z,3.60
2023-05-18T22:28:28.078Z,3.50
2023-05-18T22:30:54.761Z,3.80
2023-05-18T22:33:21.432Z,3.80
2023-05-18T22:35:48.078Z,3.60
2023-05-18T22:38:14.929Z,3.90
2023-05-18T22:40:41.617Z,3.78
2023-05-18T22:43:11.242Z,3.92
2023-05-18T22:45:38.077Z,3.67
2023-05-18T22:48:05.685Z,3.88
2023-05-18T22:50:41.592Z,3.53
2023-05-18T22:53:11.911Z,3.85
2023-05-18T22:55:38.658Z,3.60
2023-05-18T22:58:05.662Z,3.45
2023-05-18T23:00:33.465Z,4.05
2023-05-18T23:03:00.302Z,3.63
2023-05-18T23:05:29.784Z,4.13
2023-05-18T23:07:59.536Z,4.00
2023-05-18T23:10:27.056Z,3.60
2023-05-18T23:12:54.400Z,3.58
2023-05-18T23:15:23.466Z,3.50
2023-05-18T23:17:52.196Z,4.03
2023-05-18T23:20:18.933Z,3.40
2023-05-18T23:22:46.607Z,4.10
2023-05-18T23:25:15.443Z,3.92
2023-05-18T23:27:44.324Z,3.42
2023-05-18T23:30:13.963Z,3.90
2023-05-18T23:32:40.755Z,3.67
2023-05-18T23:35:07.747Z,3.83
2023-05-18T23:37:35.343Z,3.78
2023-05-18T23:40:04.627Z,3.55
2023-05-18T23:42:32.023Z,4.05
2023-05-18T23:44:58.895Z,3.80
2023-05-18T23:47:30.985Z,3.30
2023-05-18T23:49:57.745Z,3.88
2023-05-18T23:52:25.816Z,3.63
2023-05-18T23:54:52.589Z,3.55
2023-05-18T23:57:24.895Z,3.60
2023-05-18T23:59:54.196Z,3.60
